Time;durP1;ratioP1;P1;durP2;ratioP2;P2;SDS_P1;SDS_P2;PMS_P1;PMS_P2;Temp;Humidity;BMP_temperature;BMP_pressure;BME280_temperature;BME280_humidity;BME280_pressure;Samples;Min_cycle;Max_cycle;Signal;HPM_P1;HPM_P2
2023/05/04 00:00:44;;;;;;;5.30;3.63;;;;;;;;;;5062364;28;20180;-58
2023/05/04 00:03:10;;;;;;;4.70;3.03;;;;;;;;;;5043511;28;20335;-58
2023/05/04 00:05:37;;;;;;;3.30;3.00;;;;;;;;;;5066335;28;20223;-58
2023/05/04 00:08:03;;;;;;;4.30;3.10;;;;;;;;;;5068207;28;20653;-57
2023/05/04 00:10:29;;;;;;;3.27;2.97;;;;;;;;;;5071602;28;20243;-58
2023/05/04 00:12:55;;;;;;;3.30;2.90;;;;;;;;;;5060906;28;20193;-59
2023/05/04 00:15:21;;;;;;;3.00;2.70;;;;;;;;;;5068522;28;20176;-59
2023/05/04 00:17:47;;;;;;;5.10;2.67;;;;;;;;;;5051040;28;20185;-59
2023/05/04 00:20:13;;;;;;;4.20;2.70;;;;;;;;;;5069165;28;20558;-58
2023/05/04 00:22:39;;;;;;;3.57;3.10;;;;;;;;;;5050426;28;20184;-58
2023/05/04 00:25:06;;;;;;;3.57;2.90;;;;;;;;;;5069930;28;20227;-58
2023/05/04 00:27:33;;;;;;;3.17;2.70;;;;;;;;;;5060302;28;20206;-58
2023/05/04 00:30:00;;;;;;;2.83;2.60;;;;;;;;;;5055037;28;20185;-58
2023/05/04 00:32:26;;;;;;;3.60;2.77;;;;;;;;;;5069604;28;20187;-58
2023/05/04 00:34:52;;;;;;;3.43;2.97;;;;;;;;;;5066972;28;20543;-58
2023/05/04 00:37:18;;;;;;;5.03;2.50;;;;;;;;;;5070442;28;20311;-58
2023/05/04 00:39:44;;;;;;;3.10;2.80;;;;;;;;;;5068021;28;20188;-58
2023/05/04 00:42:11;;;;;;;3.87;2.70;;;;;;;;;;5065334;28;20184;-58
2023/05/04 00:44:40;;;;;;;3.57;2.27;;;;;;;;;;5068099;28;20215;-57
2023/05/04 00:47:06;;;;;;;3.27;2.63;;;;;;;;;;5063043;28;20623;-57
2023/05/04 00:49:32;;;;;;;3.63;2.87;;;;;;;;;;5066098;28;20271;-57
2023/05/04 00:51:58;;;;;;;4.37;3.20;;;;;;;;;;5067678;28;20181;-57
2023/05/04 00:54:24;;;;;;;3.37;2.43;;;;;;;;;;5068900;28;20410;-57
2023/05/04 00:56:51;;;;;;;3.40;2.87;;;;;;;;;;5069808;28;20192;-57
2023/05/04 00:59:17;;;;;;;3.10;2.80;;;;;;;;;;5068198;28;20184;-57
2023/05/04 01:01:43;;;;;;;2.97;2.67;;;;;;;;;;5065875;28;20315;-57
2023/05/04 01:04:09;;;;;;;3.10;2.80;;;;;;;;;;5044626;28;20200;-56
2023/05/04 01:06:35;;;;;;;2.83;2.53;;;;;;;;;;5067754;28;20587;-57
2023/05/04 01:09:10;;;;;;;3.53;2.87;;;;;;;;;;5068377;28;20264;-57
2023/05/04 01:11:42;;;;;;;3.73;2.83;;;;;;;;;;5059290;28;20196;-57
2023/05/04 01:14:09;;;;;;;2.63;2.43;;;;;;;;;;5054754;28;20186;-57
2023/05/04 01:16:35;;;;;;;3.73;2.80;;;;;;;;;;5059235;28;20191;-57
2023/05/04 01:19:02;;;;;;;3.20;2.80;;;;;;;;;;5063625;28;20168;-57
2023/05/04 01:21:29;;;;;;;3.23;2.60;;;;;;;;;;5069885;28;20176;-58
2023/05/04 01:23:55;;;;;;;2.50;2.30;;;;;;;;;;5068610;28;20184;-57
2023/05/04 01:26:26;;;;;;;2.67;2.37;;;;;;;;;;5052592;28;20278;-57
2023/05/04 01:29:00;;;;;;;2.87;2.50;;;;;;;;;;5066017;28;20212;-57
2023/05/04 01:31:26;;;;;;;3.60;2.80;;;;;;;;;;5064568;28;20179;-57
2023/05/04 01:33:53;;;;;;;3.53;2.67;;;;;;;;;;5065710;28;20231;-57
2023/05/04 01:36:20;;;;;;;4.30;2.67;;;;;;;;;;5069956;28;20207;-58
2023/05/04 01:38:49;;;;;;;2.83;2.57;;;;;;;;;;5067579;28;20188;-59
2023/05/04 01:41:15;;;;;;;3.53;2.80;;;;;;;;;;5046797;28;20176;-59
2023/05/04 01:43:41;;;;;;;2.67;2.47;;;;;;;;;;5065435;28;20700;-59
2023/05/04 01:46:07;;;;;;;2.53;2.33;;;;;;;;;;5065491;28;20176;-59
2023/05/04 01:48:34;;;;;;;4.43;3.13;;;;;;;;;;5038298;28;20215;-59
2023/05/04 01:51:00;;;;;;;5.83;2.17;;;;;;;;;;5066646;28;20180;-59
2023/05/04 01:53:26;;;;;;;2.60;2.37;;;;;;;;;;5066627;28;20581;-59
2023/05/04 01:55:52;;;;;;;4.50;2.93;;;;;;;;;;5068231;28;20198;-59
2023/05/04 01:58:18;;;;;;;2.90;2.70;;;;;;;;;;5060664;28;20250;-59
2023/05/04 02:00:45;;;;;;;2.97;2.67;;;;;;;;;;5063269;28;20266;-59
2023/05/04 02:03:11;;;;;;;2.70;2.50;;;;;;;;;;5062089;28;20203;-57
2023/05/04 02:05:37;;;;;;;2.70;2.50;;;;;;;;;;5066685;28;20184;-58
2023/05/04 02:08:03;;;;;;;3.33;2.57;;;;;;;;;;5065086;28;20211;-58
2023/05/04 02:10:29;;;;;;;2.50;2.30;;;;;;;;;;5067225;28;20263;-58
2023/05/04 02:12:55;;;;;;;2.80;2.60;;;;;;;;;;5067837;28;20206;-57
2023/05/04 02:15:22;;;;;;;6.27;2.73;;;;;;;;;;5066356;28;20184;-59
2023/05/04 02:17:48;;;;;;;2.63;2.40;;;;;;;;;;5067540;28;20648;-57
2023/05/04 02:20:14;;;;;;;3.10;2.57;;;;;;;;;;5065236;28;20181;-58
2023/05/04 02:22:40;;;;;;;2.97;2.63;;;;;;;;;;5065878;28;20186;-57
2023/05/04 02:25:06;;;;;;;3.10;2.83;;;;;;;;;;5068517;28;20228;-57
2023/05/04 02:27:33;;;;;;;2.93;2.60;;;;;;;;;;5067865;28;20275;-57
2023/05/04 02:29:59;;;;;;;5.63;2.60;;;;;;;;;;5066614;28;20541;-57
2023/05/04 02:32:25;;;;;;;2.97;2.57;;;;;;;;;;5066922;28;20176;-57
2023/05/04 02:34:52;;;;;;;3.27;2.83;;;;;;;;;;5060434;28;20182;-57
2023/05/04 02:37:18;;;;;;;5.70;2.93;;;;;;;;;;5067311;28;20234;-57
2023/05/04 02:39:45;;;;;;;4.70;2.80;;;;;;;;;;5063290;28;20181;-57
2023/05/04 02:42:11;;;;;;;5.67;2.93;;;;;;;;;;5062979;28;20176;-57
2023/05/04 02:44:37;;;;;;;4.50;3.23;;;;;;;;;;5058785;28;20644;-57
2023/05/04 02:47:04;;;;;;;3.70;3.33;;;;;;;;;;5058945;28;20562;-58
2023/05/04 02:49:30;;;;;;;3.20;2.83;;;;;;;;;;5061238;28;20180;-57
2023/05/04 02:51:56;;;;;;;2.67;2.47;;;;;;;;;;5072287;28;20187;-57
2023/05/04 02:54:22;;;;;;;2.70;2.50;;;;;;;;;;5070829;28;20709;-57
2023/05/04 02:56:49;;;;;;;3.23;2.93;;;;;;;;;;5073263;28;20173;-57
2023/05/04 02:59:15;;;;;;;2.83;2.40;;;;;;;;;;5066953;28;20389;-57
2023/05/04 03:01:41;;;;;;;3.57;2.50;;;;;;;;;;5070819;28;20640;-57
2023/05/04 03:04:07;;;;;;;3.00;2.80;;;;;;;;;;5070248;28;20644;-57
2023/05/04 03:06:33;;;;;;;4.33;2.90;;;;;;;;;;5071520;28;20184;-57
2023/05/04 03:08:59;;;;;;;3.00;2.40;;;;;;;;;;5070806;28;20209;-57
2023/05/04 03:11:25;;;;;;;3.30;3.00;;;;;;;;;;5061360;28;20309;-57
2023/05/04 03:13:51;;;;;;;4.03;2.90;;;;;;;;;;5067557;28;20172;-57
2023/05/04 03:16:17;;;;;;;4.17;3.00;;;;;;;;;;5071887;28;20182;-57
2023/05/04 03:18:43;;;;;;;3.37;2.30;;;;;;;;;;5050122;28;20184;-57
2023/05/04 03:21:09;;;;;;;3.60;2.90;;;;;;;;;;5070008;28;20195;-57
2023/05/04 03:23:35;;;;;;;4.80;2.60;;;;;;;;;;5072864;28;20168;-58
2023/05/04 03:26:01;;;;;;;4.93;2.43;;;;;;;;;;5067788;28;20258;-58
2023/05/04 03:28:27;;;;;;;4.47;2.70;;;;;;;;;;5058153;28;20204;-58
2023/05/04 03:30:53;;;;;;;4.33;2.80;;;;;;;;;;5069737;28;20176;-58
2023/05/04 03:33:19;;;;;;;4.10;3.70;;;;;;;;;;5070673;28;20656;-58
2023/05/04 03:35:45;;;;;;;3.13;2.93;;;;;;;;;;5066327;28;20176;-58
2023/05/04 03:38:12;;;;;;;3.30;2.87;;;;;;;;;;5072260;28;20195;-58
2023/05/04 03:40:38;;;;;;;3.77;2.30;;;;;;;;;;5070270;28;20509;-57
2023/05/04 03:43:04;;;;;;;2.70;2.47;;;;;;;;;;5072429;28;20185;-57
2023/05/04 03:45:30;;;;;;;4.87;2.60;;;;;;;;;;5070188;28;20234;-57
2023/05/04 03:47:56;;;;;;;2.67;2.47;;;;;;;;;;5062390;28;20258;-58
2023/05/04 03:50:22;;;;;;;3.73;2.90;;;;;;;;;;5069742;28;20180;-58
2023/05/04 03:52:49;;;;;;;3.83;2.63;;;;;;;;;;5071136;28;20181;-58
2023/05/04 03:55:15;;;;;;;4.43;2.70;;;;;;;;;;5069583;28;20576;-58
2023/05/04 03:57:44;;;;;;;2.77;2.57;;;;;;;;;;5062558;28;20716;-58
2023/05/04 04:00:10;;;;;;;4.87;2.57;;;;;;;;;;5066563;28;20293;-59
2023/05/04 04:02:36;;;;;;;4.27;2.77;;;;;;;;;;5070274;28;20267;-58
2023/05/04 04:05:02;;;;;;;3.20;2.90;;;;;;;;;;5070711;28;20161;-59
2023/05/04 04:07:29;;;;;;;4.87;2.70;;;;;;;;;;5072099;28;20200;-59
2023/05/04 04:09:55;;;;;;;3.83;2.70;;;;;;;;;;5070198;28;20621;-58
2023/05/04 04:12:21;;;;;;;2.93;2.63;;;;;;;;;;5060412;28;20806;-58
2023/05/04 04:14:47;;;;;;;3.07;2.70;;;;;;;;;;5068367;28;20250;-59
2023/05/04 04:17:14;;;;;;;5.50;3.33;;;;;;;;;;5072268;28;20520;-58
2023/05/04 04:19:40;;;;;;;2.83;2.63;;;;;;;;;;5040678;28;20189;-57
2023/05/04 04:22:06;;;;;;;3.70;2.23;;;;;;;;;;5072252;28;20513;-57
2023/05/04 04:24:32;;;;;;;4.07;2.97;;;;;;;;;;5069258;28;20234;-57
2023/05/04 04:26:58;;;;;;;3.33;2.90;;;;;;;;;;5052714;28;20180;-57
2023/05/04 04:29:25;;;;;;;3.60;3.30;;;;;;;;;;5069724;28;20184;-57
2023/05/04 04:31:51;;;;;;;4.83;3.13;;;;;;;;;;5066083;28;20177;-58
2023/05/04 04:34:17;;;;;;;2.80;2.60;;;;;;;;;;5067974;28;20180;-58
2023/05/04 04:36:43;;;;;;;2.97;2.67;;;;;;;;;;5066074;28;20176;-58
2023/05/04 04:39:10;;;;;;;2.80;2.60;;;;;;;;;;5067174;28;20185;-58
2023/05/04 04:41:36;;;;;;;3.33;2.63;;;;;;;;;;5069305;28;20173;-58
2023/05/04 04:44:03;;;;;;;2.67;2.53;;;;;;;;;;5070363;28;20203;-58
2023/05/04 04:46:29;;;;;;;3.70;2.70;;;;;;;;;;5063561;28;20187;-59
2023/05/04 04:48:56;;;;;;;4.67;2.87;;;;;;;;;;5060593;28;20196;-58
2023/05/04 04:51:22;;;;;;;4.87;3.10;;;;;;;;;;5064409;28;20234;-59
2023/05/04 04:53:50;;;;;;;3.37;2.53;;;;;;;;;;5065214;28;20180;-58
2023/05/04 04:56:17;;;;;;;5.13;3.30;;;;;;;;;;5066854;28;20173;-59
2023/05/04 04:58:43;;;;;;;3.27;2.93;;;;;;;;;;5061051;28;20651;-58
2023/05/04 05:01:09;;;;;;;2.93;2.53;;;;;;;;;;5057228;28;20667;-58
2023/05/04 05:03:36;;;;;;;4.47;3.30;;;;;;;;;;5055813;28;20648;-58
2023/05/04 05:06:02;;;;;;;3.90;3.00;;;;;;;;;;5065873;28;20264;-58
2023/05/04 05:08:29;;;;;;;3.90;2.77;;;;;;;;;;5064079;28;20671;-58
2023/05/04 05:10:55;;;;;;;4.57;3.13;;;;;;;;;;5063851;28;20180;-58
2023/05/04 05:13:21;;;;;;;2.97;2.77;;;;;;;;;;5058560;28;20161;-59
2023/05/04 05:15:47;;;;;;;3.03;2.70;;;;;;;;;;5060389;28;20370;-59
2023/05/04 05:18:13;;;;;;;3.10;2.80;;;;;;;;;;5063651;28;20265;-61
2023/05/04 05:20:39;;;;;;;4.03;3.70;;;;;;;;;;5057302;28;20179;-53
2023/05/04 05:23:05;;;;;;;4.70;4.30;;;;;;;;;;5064322;28;20180;-53
2023/05/04 05:25:31;;;;;;;6.80;4.57;;;;;;;;;;5064072;28;20278;-53
2023/05/04 05:27:57;;;;;;;5.20;4.70;;;;;;;;;;5065291;28;20204;-53
2023/05/04 05:30:23;;;;;;;6.40;4.60;;;;;;;;;;5065545;28;20180;-53
2023/05/04 05:32:49;;;;;;;6.63;4.97;;;;;;;;;;5062802;28;20559;-53
2023/05/04 05:35:16;;;;;;;7.70;5.43;;;;;;;;;;5060020;28;20201;-53
2023/05/04 05:37:42;;;;;;;5.10;4.13;;;;;;;;;;5060358;28;20195;-53
2023/05/04 05:40:08;;;;;;;6.37;5.00;;;;;;;;;;5062514;28;20270;-52
2023/05/04 05:42:34;;;;;;;6.77;4.53;;;;;;;;;;5061321;28;20893;-55
2023/05/04 05:45:02;;;;;;;4.87;4.47;;;;;;;;;;5067105;28;20203;-52
2023/05/04 05:47:28;;;;;;;6.30;4.17;;;;;;;;;;5059102;28;20595;-52
2023/05/04 05:49:54;;;;;;;6.30;4.67;;;;;;;;;;5055444;28;20169;-52
2023/05/04 05:52:20;;;;;;;5.67;3.70;;;;;;;;;;5057650;28;20671;-52
2023/05/04 05:54:46;;;;;;;5.73;5.00;;;;;;;;;;5064558;28;20173;-52
2023/05/04 05:57:12;;;;;;;4.80;4.40;;;;;;;;;;5065677;28;20193;-52
2023/05/04 05:59:40;;;;;;;5.33;4.83;;;;;;;;;;5049560;28;20265;-53
2023/05/04 06:02:06;;;;;;;5.40;4.80;;;;;;;;;;5060874;28;20636;-52
2023/05/04 06:04:33;;;;;;;5.23;3.70;;;;;;;;;;5060719;28;20532;-53
2023/05/04 06:06:59;;;;;;;4.33;3.87;;;;;;;;;;5068731;28;20636;-53
2023/05/04 06:09:25;;;;;;;5.77;4.13;;;;;;;;;;5064349;28;20186;-52
2023/05/04 06:11:51;;;;;;;4.73;3.83;;;;;;;;;;5061900;28;20192;-52
2023/05/04 06:14:17;;;;;;;5.70;4.03;;;;;;;;;;5062114;28;21287;-53
2023/05/04 06:16:43;;;;;;;4.63;3.97;;;;;;;;;;5059191;28;20185;-54
2023/05/04 06:19:10;;;;;;;5.73;4.83;;;;;;;;;;5064369;28;20196;-52
2023/05/04 06:21:36;;;;;;;5.27;3.93;;;;;;;;;;5065201;28;20188;-57
2023/05/04 06:24:02;;;;;;;4.43;4.03;;;;;;;;;;5061115;28;20177;-58
2023/05/04 06:26:28;;;;;;;4.37;3.97;;;;;;;;;;5059007;28;20720;-58
2023/05/04 06:28:54;;;;;;;5.80;4.20;;;;;;;;;;5056753;28;20644;-57
2023/05/04 06:31:20;;;;;;;4.73;3.60;;;;;;;;;;5061306;28;20534;-57
2023/05/04 06:33:47;;;;;;;5.03;4.27;;;;;;;;;;5068156;28;20212;-57
2023/05/04 06:36:13;;;;;;;4.37;3.83;;;;;;;;;;5067105;28;20184;-57
2023/05/04 06:38:39;;;;;;;6.13;4.13;;;;;;;;;;5069528;28;20176;-57
2023/05/04 06:41:05;;;;;;;8.07;3.60;;;;;;;;;;5069845;28;20160;-58
2023/05/04 06:43:32;;;;;;;4.80;4.13;;;;;;;;;;5065314;28;20173;-58
2023/05/04 06:46:02;;;;;;;3.97;3.30;;;;;;;;;;5053768;28;20177;-57
2023/05/04 06:48:29;;;;;;;3.70;3.30;;;;;;;;;;5052935;28;20267;-58
2023/05/04 06:50:56;;;;;;;3.33;3.00;;;;;;;;;;5067860;28;20189;-57
2023/05/04 06:53:22;;;;;;;6.80;3.30;;;;;;;;;;5068571;28;20223;-57
2023/05/04 06:55:48;;;;;;;4.40;3.07;;;;;;;;;;5069634;28;20168;-57
2023/05/04 06:58:17;;;;;;;3.97;3.10;;;;;;;;;;5068820;28;20859;-57
2023/05/04 07:00:43;;;;;;;3.70;3.10;;;;;;;;;;5066602;28;20234;-58
2023/05/04 07:03:09;;;;;;;4.17;3.77;;;;;;;;;;5057559;28;20259;-57
2023/05/04 07:05:36;;;;;;;3.13;2.83;;;;;;;;;;5051366;28;20177;-58
2023/05/04 07:08:02;;;;;;;5.33;3.60;;;;;;;;;;5069166;28;20203;-57
2023/05/04 07:10:29;;;;;;;3.43;3.13;;;;;;;;;;5068550;28;20440;-58
2023/05/04 07:12:55;;;;;;;3.40;3.10;;;;;;;;;;5068876;28;20201;-57
2023/05/04 07:15:21;;;;;;;2.87;2.67;;;;;;;;;;5069581;28;20644;-57
2023/05/04 07:17:47;;;;;;;4.30;3.00;;;;;;;;;;5062155;28;20177;-57
2023/05/04 07:20:14;;;;;;;3.60;3.30;;;;;;;;;;5059299;28;20727;-57
2023/05/04 07:22:40;;;;;;;4.57;3.37;;;;;;;;;;5066983;28;20292;-58
2023/05/04 07:25:07;;;;;;;2.80;2.60;;;;;;;;;;5068770;28;20231;-57
2023/05/04 07:27:36;;;;;;;2.73;2.50;;;;;;;;;;5069139;28;20199;-57
2023/05/04 07:30:05;;;;;;;6.13;2.83;;;;;;;;;;5067877;28;20271;-61
2023/05/04 07:32:31;;;;;;;4.60;2.87;;;;;;;;;;5067094;28;20177;-57
2023/05/04 07:34:57;;;;;;;4.43;3.30;;;;;;;;;;5048043;28;20215;-58
2023/05/04 07:37:23;;;;;;;3.30;2.80;;;;;;;;;;5054184;28;20204;-57
2023/05/04 07:39:49;;;;;;;2.60;2.40;;;;;;;;;;5071386;28;20187;-57
2023/05/04 07:42:16;;;;;;;5.57;3.23;;;;;;;;;;5072866;28;20164;-60
2023/05/04 07:44:42;;;;;;;6.53;3.10;;;;;;;;;;5072456;28;20503;-58
2023/05/04 07:47:08;;;;;;;4.43;2.80;;;;;;;;;;5068230;28;20672;-58
2023/05/04 07:49:34;;;;;;;3.60;2.60;;;;;;;;;;5058826;28;20177;-57
2023/05/04 07:52:00;;;;;;;2.70;2.50;;;;;;;;;;5071547;28;20192;-58
2023/05/04 07:54:26;;;;;;;3.37;2.67;;;;;;;;;;5069476;28;20641;-58
2023/05/04 07:56:52;;;;;;;2.97;2.50;;;;;;;;;;5054499;28;20509;-58
2023/05/04 07:59:18;;;;;;;3.63;2.60;;;;;;;;;;5070832;28;20212;-59
2023/05/04 08:01:45;;;;;;;2.87;2.60;;;;;;;;;;5071062;28;20199;-58
2023/05/04 08:04:11;;;;;;;4.17;2.70;;;;;;;;;;5060033;28;20181;-58
2023/05/04 08:06:38;;;;;;;3.13;2.50;;;;;;;;;;5052462;28;20165;-58
2023/05/04 08:09:07;;;;;;;4.10;3.77;;;;;;;;;;5061886;28;20672;-58
2023/05/04 08:11:33;;;;;;;3.50;2.57;;;;;;;;;;5071639;28;20215;-57
2023/05/04 08:14:00;;;;;;;3.77;3.03;;;;;;;;;;5072101;28;20226;-58
2023/05/04 08:16:28;;;;;;;3.53;2.63;;;;;;;;;;5072013;28;20176;-58
2023/05/04 08:18:55;;;;;;;2.63;2.20;;;;;;;;;;5062838;28;20189;-58
2023/05/04 08:21:21;;;;;;;6.23;3.07;;;;;;;;;;5070303;28;20177;-58
2023/05/04 08:23:47;;;;;;;3.33;2.53;;;;;;;;;;5069429;28;20917;-58
2023/05/04 08:26:13;;;;;;;2.47;2.27;;;;;;;;;;5054037;28;20298;-58
2023/05/04 08:28:40;;;;;;;3.00;2.50;;;;;;;;;;5071782;28;20196;-59
2023/05/04 08:31:06;;;;;;;3.90;2.73;;;;;;;;;;5071291;28;20196;-57
2023/05/04 08:33:34;;;;;;;2.67;2.40;;;;;;;;;;5067943;28;20685;-57
2023/05/04 08:36:00;;;;;;;2.60;2.40;;;;;;;;;;5052031;28;20176;-58
2023/05/04 08:38:26;;;;;;;2.57;2.27;;;;;;;;;;5052496;28;20188;-58
2023/05/04 08:40:52;;;;;;;4.03;2.40;;;;;;;;;;5070974;28;20181;-58
2023/05/04 08:43:18;;;;;;;2.40;2.20;;;;;;;;;;5071329;28;20169;-58
2023/05/04 08:45:45;;;;;;;5.37;2.73;;;;;;;;;;5053369;28;20181;-58
2023/05/04 08:48:11;;;;;;;3.10;2.20;;;;;;;;;;5068989;28;20205;-57
2023/05/04 08:50:37;;;;;;;3.13;2.83;;;;;;;;;;5040199;28;20176;-61
2023/05/04 08:53:09;;;;;;;3.47;3.13;;;;;;;;;;5065118;28;20176;-60
2023/05/04 08:55:36;;;;;;;3.20;2.90;;;;;;;;;;5052051;28;20561;-60
2023/05/04 08:58:07;;;;;;;3.57;2.87;;;;;;;;;;5057034;28;20184;-60
2023/05/04 09:00:33;;;;;;;4.07;2.87;;;;;;;;;;5073620;28;20181;-60
2023/05/04 09:03:02;;;;;;;3.97;3.57;;;;;;;;;;5070235;28;20587;-60
2023/05/04 09:05:28;;;;;;;4.10;2.90;;;;;;;;;;5069110;28;20878;-58
2023/05/04 09:07:54;;;;;;;3.60;3.30;;;;;;;;;;5065822;28;20285;-59
2023/05/04 09:10:20;;;;;;;3.70;3.43;;;;;;;;;;5059238;28;20219;-58
2023/05/04 09:12:47;;;;;;;3.67;2.80;;;;;;;;;;5068226;28;20210;-58
2023/05/04 09:15:16;;;;;;;3.33;2.63;;;;;;;;;;5067050;28;20255;-58
2023/05/04 09:17:43;;;;;;;4.63;2.80;;;;;;;;;;5053488;28;20177;-58
2023/05/04 09:20:09;;;;;;;2.93;2.70;;;;;;;;;;5056438;28;20183;-58
2023/05/04 09:22:35;;;;;;;3.30;3.00;;;;;;;;;;5070094;28;20184;-59
2023/05/04 09:25:08;;;;;;;3.83;2.83;;;;;;;;;;5065082;28;20234;-58
2023/05/04 09:27:34;;;;;;;3.23;2.93;;;;;;;;;;5042150;28;20228;-58
2023/05/04 09:30:00;;;;;;;61.53;56.00;;;;;;;;;;5067670;28;20219;-59
2023/05/04 09:32:27;;;;;;;126.87;113.63;;;;;;;;;;5069378;28;20177;-59
2023/05/04 09:34:54;;;;;;;249.70;225.40;;;;;;;;;;5068528;28;20172;-60
2023/05/04 09:37:21;;;;;;;134.60;121.73;;;;;;;;;;5052993;28;20200;-60
2023/05/04 09:39:54;;;;;;;150.50;135.97;;;;;;;;;;5069611;28;20207;-60
2023/05/04 09:42:22;;;;;;;257.40;234.67;;;;;;;;;;5062987;28;20592;-60
2023/05/04 09:45:04;;;;;;;160.10;145.57;;;;;;;;;;5049740;28;20185;-60
2023/05/04 09:47:37;;;;;;;122.90;111.40;;;;;;;;;;5068352;28;20261;-60
2023/05/04 09:50:17;;;;;;;126.67;115.00;;;;;;;;;;5067002;28;20168;-61
2023/05/04 09:52:44;;;;;;;101.13;91.90;;;;;;;;;;5065761;28;20187;-60
2023/05/04 09:55:12;;;;;;;79.87;72.03;;;;;;;;;;5070262;28;20193;-60
2023/05/04 09:57:40;;;;;;;63.70;58.00;;;;;;;;;;5069744;28;20185;-60
2023/05/04 10:00:07;;;;;;;87.27;79.47;;;;;;;;;;5055275;28;20197;-60
2023/05/04 10:02:33;;;;;;;61.87;56.37;;;;;;;;;;5050174;28;20168;-59
2023/05/04 10:05:00;;;;;;;58.73;53.03;;;;;;;;;;5057767;28;20550;-60
2023/05/04 10:07:29;;;;;;;46.97;42.73;;;;;;;;;;5065912;28;20731;-60
2023/05/04 10:09:58;;;;;;;38.40;34.97;;;;;;;;;;5048342;28;20883;-59
2023/05/04 10:12:25;;;;;;;35.80;32.33;;;;;;;;;;5031729;28;20192;-58
2023/05/04 10:14:51;;;;;;;38.30;34.93;;;;;;;;;;5069256;28;20235;-59
2023/05/04 10:17:25;;;;;;;27.13;24.63;;;;;;;;;;5067040;28;20176;-58
2023/05/04 10:20:02;;;;;;;31.87;18.50;;;;;;;;;;5064886;28;20199;-57
2023/05/04 10:22:47;;;;;;;17.43;9.50;;;;;;;;;;5057693;28;20701;-57
2023/05/04 10:25:26;;;;;;;5.13;4.33;;;;;;;;;;5065088;28;20227;-57
2023/05/04 10:27:52;;;;;;;7.03;4.50;;;;;;;;;;5060996;28;20697;-57
2023/05/04 10:30:19;;;;;;;5.63;3.80;;;;;;;;;;5067238;28;20208;-58
2023/05/04 10:32:45;;;;;;;4.77;4.37;;;;;;;;;;5068172;28;20200;-58
2023/05/04 10:35:13;;;;;;;4.50;4.10;;;;;;;;;;5067807;28;20598;-59
2023/05/04 10:37:49;;;;;;;3.63;3.33;;;;;;;;;;5068462;28;20176;-59
2023/05/04 10:40:16;;;;;;;6.40;3.83;;;;;;;;;;5068193;28;20711;-59
2023/05/04 10:42:43;;;;;;;3.73;3.30;;;;;;;;;;5068985;28;20199;-58
2023/05/04 10:45:09;;;;;;;3.87;3.50;;;;;;;;;;5067974;28;20583;-57
2023/05/04 10:47:39;;;;;;;3.73;3.43;;;;;;;;;;5067665;28;20232;-58
2023/05/04 10:50:15;;;;;;;3.40;3.10;;;;;;;;;;5064644;28;20196;-57
2023/05/04 10:52:52;;;;;;;5.67;3.67;;;;;;;;;;5068585;28;20168;-57
2023/05/04 10:55:19;;;;;;;3.80;3.40;;;;;;;;;;5069169;28;20645;-57
2023/05/04 10:57:55;;;;;;;8.07;4.07;;;;;;;;;;5067177;28;20538;-59
2023/05/04 11:00:23;;;;;;;3.07;2.87;;;;;;;;;;5063904;28;20180;-59
2023/05/04 11:03:02;;;;;;;3.77;3.47;;;;;;;;;;5041664;28;20241;-60
2023/05/04 11:05:39;;;;;;;4.43;3.40;;;;;;;;;;5039128;28;20196;-59
2023/05/04 11:08:15;;;;;;;3.77;3.47;;;;;;;;;;5075084;28;20659;-58
2023/05/04 11:10:42;;;;;;;3.20;2.93;;;;;;;;;;5063518;28;20173;-56
2023/05/04 11:13:14;;;;;;;4.97;3.67;;;;;;;;;;5075806;28;20306;-57
2023/05/04 11:15:50;;;;;;;3.60;3.30;;;;;;;;;;5067879;28;20723;-57
2023/05/04 11:18:29;;;;;;;5.57;3.17;;;;;;;;;;5078838;28;20210;-57
2023/05/04 11:20:56;;;;;;;3.43;3.00;;;;;;;;;;5066144;28;20188;-57
2023/05/04 11:23:22;;;;;;;3.47;3.27;;;;;;;;;;5070328;28;20177;-57
2023/05/04 11:25:48;;;;;;;8.30;4.70;;;;;;;;;;5072307;28;20231;-57
2023/05/04 11:28:14;;;;;;;4.77;3.23;;;;;;;;;;5078305;28;20217;-57
2023/05/04 11:30:42;;;;;;;5.77;2.93;;;;;;;;;;5069724;28;20590;-57
2023/05/04 11:33:12;;;;;;;3.77;2.90;;;;;;;;;;5076857;28;20189;-56
2023/05/04 11:35:39;;;;;;;3.17;2.87;;;;;;;;;;5071585;28;20554;-56
2023/05/04 11:38:06;;;;;;;2.90;2.70;;;;;;;;;;5072714;28;20702;-56
2023/05/04 11:40:34;;;;;;;3.43;3.10;;;;;;;;;;5071959;28;20186;-56
2023/05/04 11:43:02;;;;;;;3.00;2.80;;;;;;;;;;5076998;28;20189;-57
2023/05/04 11:45:29;;;;;;;2.97;2.77;;;;;;;;;;5071349;28;20187;-57
2023/05/04 11:47:56;;;;;;;3.10;2.80;;;;;;;;;;5073487;28;20693;-56
2023/05/04 11:50:23;;;;;;;4.70;2.50;;;;;;;;;;5071918;28;20171;-56
2023/05/04 11:52:49;;;;;;;3.13;2.83;;;;;;;;;;5082178;28;20178;-58
2023/05/04 11:55:29;;;;;;;2.83;2.63;;;;;;;;;;5067164;28;20177;-56
2023/05/04 11:57:56;;;;;;;4.67;3.17;;;;;;;;;;5064811;28;20832;-57
2023/05/04 12:00:33;;;;;;;3.40;3.03;;;;;;;;;;5063875;28;20266;-58
2023/05/04 12:03:00;;;;;;;4.87;3.20;;;;;;;;;;5067336;28;20241;-57
2023/05/04 12:05:27;;;;;;;3.43;2.73;;;;;;;;;;5064583;28;20185;-58
2023/05/04 12:07:53;;;;;;;4.50;2.77;;;;;;;;;;5065332;28;20720;-57
2023/05/04 12:10:34;;;;;;;2.83;2.60;;;;;;;;;;5060118;28;20645;-57
2023/05/04 12:13:01;;;;;;;3.63;2.87;;;;;;;;;;5056775;28;20201;-57
2023/05/04 12:15:28;;;;;;;3.10;2.90;;;;;;;;;;5070119;28;20177;-57
2023/05/04 12:17:54;;;;;;;3.17;2.97;;;;;;;;;;5076285;28;20189;-56
2023/05/04 12:20:25;;;;;;;4.63;3.93;;;;;;;;;;5062085;28;20220;-57
2023/05/04 12:22:51;;;;;;;4.70;3.00;;;;;;;;;;5045167;28;20180;-56
2023/05/04 12:25:18;;;;;;;2.87;2.67;;;;;;;;;;5070475;28;20728;-57
2023/05/04 12:27:47;;;;;;;7.37;3.10;;;;;;;;;;5076045;28;20306;-58
2023/05/04 12:30:13;;;;;;;3.20;2.90;;;;;;;;;;5068252;28;20987;-57
2023/05/04 12:32:40;;;;;;;3.57;3.37;;;;;;;;;;5076427;28;20197;-57
2023/05/04 12:35:07;;;;;;;4.33;2.50;;;;;;;;;;5070529;28;20172;-61
2023/05/04 12:37:33;;;;;;;3.37;2.90;;;;;;;;;;5050643;28;20223;-58
2023/05/04 12:39:59;;;;;;;3.43;3.13;;;;;;;;;;5069959;28;20180;-57
2023/05/04 12:42:25;;;;;;;4.83;3.33;;;;;;;;;;5072259;28;20215;-58
2023/05/04 12:44:52;;;;;;;6.70;3.00;;;;;;;;;;5079583;28;20503;-57
2023/05/04 12:47:19;;;;;;;3.10;2.90;;;;;;;;;;5070075;28;20184;-58
2023/05/04 12:49:46;;;;;;;3.70;3.17;;;;;;;;;;5064925;28;20179;-57
2023/05/04 12:52:16;;;;;;;3.17;2.90;;;;;;;;;;5067345;28;20641;-58
2023/05/04 12:54:42;;;;;;;2.73;2.50;;;;;;;;;;5051920;28;20182;-57
2023/05/04 12:57:08;;;;;;;5.00;2.80;;;;;;;;;;5056927;28;20743;-58
2023/05/04 12:59:37;;;;;;;3.20;2.77;;;;;;;;;;5047920;28;20178;-58
2023/05/04 13:02:03;;;;;;;2.80;2.60;;;;;;;;;;5061345;28;20176;-57
2023/05/04 13:04:29;;;;;;;3.20;2.33;;;;;;;;;;5057558;28;20200;-60
2023/05/04 13:06:55;;;;;;;3.17;2.63;;;;;;;;;;5058015;28;20678;-58
2023/05/04 13:09:21;;;;;;;3.00;2.80;;;;;;;;;;5068017;28;20498;-58
2023/05/04 13:11:48;;;;;;;3.70;2.97;;;;;;;;;;5068802;28;20192;-58
2023/05/04 13:14:15;;;;;;;4.60;2.50;;;;;;;;;;5038811;28;20182;-58
2023/05/04 13:16:41;;;;;;;3.90;2.60;;;;;;;;;;5070343;28;20683;-58
2023/05/04 13:19:07;;;;;;;3.13;2.93;;;;;;;;;;5069653;28;20161;-59
2023/05/04 13:21:33;;;;;;;3.23;2.93;;;;;;;;;;5068742;28;20180;-58
2023/05/04 13:24:00;;;;;;;4.90;2.87;;;;;;;;;;5063609;28;20179;-56
2023/05/04 13:26:26;;;;;;;3.13;2.80;;;;;;;;;;5069629;28;20217;-56
2023/05/04 13:28:55;;;;;;;5.00;2.80;;;;;;;;;;5056261;28;20208;-58
2023/05/04 13:31:21;;;;;;;4.07;2.70;;;;;;;;;;5049607;28;20259;-58
2023/05/04 13:33:49;;;;;;;3.43;3.17;;;;;;;;;;5046999;28;20170;-56
2023/05/04 13:36:15;;;;;;;4.40;3.30;;;;;;;;;;5049374;28;20530;-58
2023/05/04 13:38:42;;;;;;;3.33;2.70;;;;;;;;;;5047670;28;20597;-58
2023/05/04 13:41:08;;;;;;;4.97;2.80;;;;;;;;;;5031711;28;20190;-59
2023/05/04 13:43:34;;;;;;;4.80;2.73;;;;;;;;;;5030556;28;20174;-59
2023/05/04 13:46:04;;;;;;;3.37;2.90;;;;;;;;;;5048155;28;20185;-59
2023/05/04 13:51:40;;;;;;;2.90;2.63;;;;;;;;;;5046340;28;20196;-58
2023/05/04 13:54:06;;;;;;;2.97;2.77;;;;;;;;;;5043378;28;20657;-59
2023/05/04 13:56:32;;;;;;;3.00;2.80;;;;;;;;;;5043197;28;20580;-59
2023/05/04 13:58:58;;;;;;;2.80;2.60;;;;;;;;;;5042680;28;20185;-59
2023/05/04 14:01:24;;;;;;;3.37;3.07;;;;;;;;;;5047480;28;20217;-59
2023/05/04 14:03:50;;;;;;;3.00;2.80;;;;;;;;;;5047361;28;20193;-59
2023/05/04 14:06:16;;;;;;;3.50;3.20;;;;;;;;;;5046497;28;20190;-59
2023/05/04 14:08:42;;;;;;;6.43;3.07;;;;;;;;;;5039770;28;20216;-60
2023/05/04 14:11:08;;;;;;;5.40;2.73;;;;;;;;;;5037061;28;20280;-57
2023/05/04 14:13:35;;;;;;;3.80;3.37;;;;;;;;;;5046023;28;20181;-58
2023/05/04 14:16:02;;;;;;;4.20;2.77;;;;;;;;;;5050119;28;20782;-58
2023/05/04 14:18:30;;;;;;;6.60;3.10;;;;;;;;;;5044810;28;20210;-57
2023/05/04 14:20:56;;;;;;;4.43;2.63;;;;;;;;;;5044688;28;20660;-57
2023/05/04 14:23:23;;;;;;;4.53;4.13;;;;;;;;;;5047986;28;20564;-57
2023/05/04 14:25:50;;;;;;;3.00;2.70;;;;;;;;;;5049952;28;20239;-57
2023/05/04 14:28:16;;;;;;;3.10;2.90;;;;;;;;;;5068729;28;20690;-57
2023/05/04 14:30:42;;;;;;;2.80;2.60;;;;;;;;;;5066936;28;20620;-58
2023/05/04 14:33:08;;;;;;;2.70;2.50;;;;;;;;;;5060242;28;20169;-58
2023/05/04 14:35:36;;;;;;;9.17;2.77;;;;;;;;;;5067314;28;20187;-57
2023/05/04 14:38:02;;;;;;;3.93;2.70;;;;;;;;;;5061974;28;20617;-57
2023/05/04 14:40:29;;;;;;;3.47;2.47;;;;;;;;;;5063719;28;20209;-56
2023/05/04 14:42:58;;;;;;;4.27;2.60;;;;;;;;;;5064775;28;20232;-56